sensor_id;sensor_type;location;lat;lon;timestamp;P1;durP1;ratioP1;P2;durP2;ratioP2
23400;SDS011;11873;49.300;8.920;2023-03-01T00:02:51;9.10;;;7.90;;
23400;SDS011;11873;49.300;8.920;2023-03-01T00:07:52;9.70;;;8.10;;
23400;SDS011;11873;49.300;8.920;2023-03-01T00:12:52;8.33;;;7.37;;
23400;SDS011;11873;49.300;8.920;2023-03-01T00:17:53;8.57;;;7.60;;
23400;SDS011;11873;49.300;8.920;2023-03-01T00:22:53;8.27;;;7.40;;
23400;SDS011;11873;49.300;8.920;2023-03-01T00:27:53;9.50;;;7.07;;
23400;SDS011;11873;49.300;8.920;2023-03-01T00:32:53;8.90;;;7.30;;
23400;SDS011;11873;49.300;8.920;2023-03-01T00:37:53;8.43;;;7.13;;
23400;SDS011;11873;49.300;8.920;2023-03-01T00:42:54;9.43;;;7.67;;
23400;SDS011;11873;49.300;8.920;2023-03-01T00:47:54;9.57;;;7.33;;
23400;SDS011;11873;49.300;8.920;2023-03-01T00:52:54;8.93;;;7.73;;
23400;SDS011;11873;49.300;8.920;2023-03-01T00:57:55;10.23;;;7.90;;
23400;SDS011;11873;49.300;8.920;2023-03-01T01:02:55;8.20;;;7.40;;
23400;SDS011;11873;49.300;8.920;2023-03-01T01:07:55;9.40;;;8.03;;
23400;SDS011;11873;49.300;8.920;2023-03-01T01:12:55;9.43;;;8.43;;
23400;SDS011;11873;49.300;8.920;2023-03-01T01:17:55;9.80;;;8.23;;
23400;SDS011;11873;49.300;8.920;2023-03-01T01:22:56;14.37;;;8.57;;
23400;SDS011;11873;49.300;8.920;2023-03-01T01:27:56;10.20;;;9.20;;
23400;SDS011;11873;49.300;8.920;2023-03-01T01:32:56;10.60;;;8.37;;
23400;SDS011;11873;49.300;8.920;2023-03-01T01:37:56;10.50;;;9.07;;
23400;SDS011;11873;49.300;8.920;2023-03-01T01:42:56;9.77;;;7.97;;
23400;SDS011;11873;49.300;8.920;2023-03-01T01:48:04;11.17;;;8.57;;
23400;SDS011;11873;49.300;8.920;2023-03-01T01:53:09;11.13;;;9.20;;
23400;SDS011;11873;49.300;8.920;2023-03-01T01:58:11;11.63;;;9.03;;
23400;SDS011;11873;49.300;8.920;2023-03-01T02:03:45;9.30;;;8.40;;
23400;SDS011;11873;49.300;8.920;2023-03-01T02:08:39;13.53;;;8.93;;
23400;SDS011;11873;49.300;8.920;2023-03-01T02:13:40;10.07;;;8.60;;
23400;SDS011;11873;49.300;8.920;2023-03-01T02:18:41;11.13;;;8.87;;
23400;SDS011;11873;49.300;8.920;2023-03-01T02:23:42;11.30;;;8.90;;
23400;SDS011;11873;49.300;8.920;2023-03-01T02:28:42;9.47;;;8.37;;
23400;SDS011;11873;49.300;8.920;2023-03-01T02:33:43;10.17;;;9.17;;
23400;SDS011;11873;49.300;8.920;2023-03-01T02:38:44;10.20;;;9.10;;
23400;SDS011;11873;49.300;8.920;2023-03-01T02:43:44;10.90;;;8.70;;
23400;SDS011;11873;49.300;8.920;2023-03-01T02:48:46;10.63;;;8.80;;
23400;SDS011;11873;49.300;8.920;2023-03-01T02:58:50;10.60;;;9.00;;
23400;SDS011;11873;49.300;8.920;2023-03-01T03:03:50;11.38;;;9.30;;
23400;SDS011;11873;49.300;8.920;2023-03-01T03:08:50;10.80;;;9.63;;
23400;SDS011;11873;49.300;8.920;2023-03-01T03:13:50;10.77;;;9.07;;
23400;SDS011;11873;49.300;8.920;2023-03-01T03:18:50;11.67;;;9.53;;
23400;SDS011;11873;49.300;8.920;2023-03-01T03:23:50;11.30;;;9.90;;
23400;SDS011;11873;49.300;8.920;2023-03-01T03:28:51;12.57;;;9.80;;
23400;SDS011;11873;49.300;8.920;2023-03-01T03:33:51;9.43;;;8.43;;
23400;SDS011;11873;49.300;8.920;2023-03-01T03:38:51;11.87;;;9.30;;
23400;SDS011;11873;49.300;8.920;2023-03-01T03:43:51;12.73;;;9.20;;
23400;SDS011;11873;49.300;8.920;2023-03-01T03:48:51;11.23;;;9.17;;
23400;SDS011;11873;49.300;8.920;2023-03-01T03:53:51;10.87;;;9.37;;
23400;SDS011;11873;49.300;8.920;2023-03-01T03:58:52;11.03;;;9.03;;
23400;SDS011;11873;49.300;8.920;2023-03-01T04:03:52;9.90;;;8.60;;
23400;SDS011;11873;49.300;8.920;2023-03-01T04:08:52;11.37;;;9.17;;
23400;SDS011;11873;49.300;8.920;2023-03-01T04:13:53;11.00;;;8.73;;
23400;SDS011;11873;49.300;8.920;2023-03-01T04:18:53;13.27;;;10.30;;
23400;SDS011;11873;49.300;8.920;2023-03-01T04:23:54;12.27;;;10.73;;
23400;SDS011;11873;49.300;8.920;2023-03-01T04:28:54;16.47;;;11.90;;
23400;SDS011;11873;49.300;8.920;2023-03-01T04:33:54;23.80;;;14.37;;
23400;SDS011;11873;49.300;8.920;2023-03-01T04:38:55;21.67;;;14.93;;
23400;SDS011;11873;49.300;8.920;2023-03-01T04:43:55;16.17;;;13.30;;
23400;SDS011;11873;49.300;8.920;2023-03-01T04:48:55;18.60;;;12.93;;
23400;SDS011;11873;49.300;8.920;2023-03-01T04:53:55;18.47;;;12.63;;
23400;SDS011;11873;49.300;8.920;2023-03-01T04:58:56;16.10;;;12.90;;
23400;SDS011;11873;49.300;8.920;2023-03-01T05:03:56;17.57;;;12.47;;
23400;SDS011;11873;49.300;8.920;2023-03-01T05:08:56;18.10;;;12.77;;
23400;SDS011;11873;49.300;8.920;2023-03-01T05:13:56;14.50;;;11.90;;
23400;SDS011;11873;49.300;8.920;2023-03-01T05:18:57;13.07;;;11.47;;
23400;SDS011;11873;49.300;8.920;2023-03-01T05:23:57;13.63;;;10.90;;
23400;SDS011;11873;49.300;8.920;2023-03-01T05:28:57;12.93;;;11.50;;
23400;SDS011;11873;49.300;8.920;2023-03-01T05:33:58;14.00;;;10.83;;
23400;SDS011;11873;49.300;8.920;2023-03-01T05:38:58;15.73;;;11.53;;
23400;SDS011;11873;49.300;8.920;2023-03-01T05:43:58;13.40;;;11.20;;
23400;SDS011;11873;49.300;8.920;2023-03-01T05:48:58;13.60;;;11.33;;
23400;SDS011;11873;49.300;8.920;2023-03-01T05:53:58;13.60;;;11.13;;
23400;SDS011;11873;49.300;8.920;2023-03-01T05:58:58;14.37;;;12.10;;
23400;SDS011;11873;49.300;8.920;2023-03-01T06:03:59;13.73;;;11.00;;
23400;SDS011;11873;49.300;8.920;2023-03-01T06:08:59;12.97;;;11.60;;
23400;SDS011;11873;49.300;8.920;2023-03-01T06:13:59;16.50;;;13.53;;
23400;SDS011;11873;49.300;8.920;2023-03-01T06:18:59;13.23;;;11.57;;
23400;SDS011;11873;49.300;8.920;2023-03-01T06:23:59;13.40;;;11.47;;
23400;SDS011;11873;49.300;8.920;2023-03-01T06:29:00;13.20;;;10.67;;
23400;SDS011;11873;49.300;8.920;2023-03-01T06:34:00;16.03;;;12.17;;
23400;SDS011;11873;49.300;8.920;2023-03-01T06:39:00;13.93;;;11.77;;
23400;SDS011;11873;49.300;8.920;2023-03-01T06:44:00;15.67;;;12.27;;
23400;SDS011;11873;49.300;8.920;2023-03-01T06:49:00;9.07;;;8.13;;
23400;SDS011;11873;49.300;8.920;2023-03-01T06:54:02;9.30;;;8.33;;
23400;SDS011;11873;49.300;8.920;2023-03-01T06:59:02;12.20;;;8.97;;
23400;SDS011;11873;49.300;8.920;2023-03-01T07:04:03;12.83;;;10.23;;
23400;SDS011;11873;49.300;8.920;2023-03-01T07:09:03;13.03;;;10.23;;
23400;SDS011;11873;49.300;8.920;2023-03-01T07:14:03;13.33;;;10.67;;
23400;SDS011;11873;49.300;8.920;2023-03-01T07:19:03;14.37;;;11.07;;
23400;SDS011;11873;49.300;8.920;2023-03-01T07:24:07;13.63;;;10.13;;
23400;SDS011;11873;49.300;8.920;2023-03-01T07:29:08;12.57;;;9.83;;
23400;SDS011;11873;49.300;8.920;2023-03-01T07:34:09;12.33;;;9.57;;
23400;SDS011;11873;49.300;8.920;2023-03-01T07:39:10;10.73;;;8.07;;
23400;SDS011;11873;49.300;8.920;2023-03-01T07:44:10;10.87;;;8.77;;
23400;SDS011;11873;49.300;8.920;2023-03-01T07:49:10;10.70;;;7.27;;
23400;SDS011;11873;49.300;8.920;2023-03-01T07:54:11;12.57;;;10.87;;
23400;SDS011;11873;49.300;8.920;2023-03-01T07:59:11;9.80;;;8.40;;
23400;SDS011;11873;49.300;8.920;2023-03-01T08:04:11;6.77;;;5.93;;
23400;SDS011;11873;49.300;8.920;2023-03-01T08:09:11;6.03;;;5.10;;
23400;SDS011;11873;49.300;8.920;2023-03-01T08:14:12;7.07;;;4.47;;
23400;SDS011;11873;49.300;8.920;2023-03-01T08:19:12;11.93;;;8.43;;
23400;SDS011;11873;49.300;8.920;2023-03-01T08:24:12;9.77;;;8.30;;
23400;SDS011;11873;49.300;8.920;2023-03-01T08:29:12;12.30;;;9.83;;
23400;SDS011;11873;49.300;8.920;2023-03-01T08:34:13;13.77;;;10.70;;
23400;SDS011;11873;49.300;8.920;2023-03-01T08:39:14;12.37;;;9.00;;
23400;SDS011;11873;49.300;8.920;2023-03-01T08:44:15;9.13;;;7.87;;
23400;SDS011;11873;49.300;8.920;2023-03-01T08:49:16;6.53;;;4.60;;
23400;SDS011;11873;49.300;8.920;2023-03-01T08:54:18;7.83;;;6.63;;
23400;SDS011;11873;49.300;8.920;2023-03-01T08:59:18;11.73;;;9.00;;
23400;SDS011;11873;49.300;8.920;2023-03-01T09:04:18;10.13;;;7.70;;
23400;SDS011;11873;49.300;8.920;2023-03-01T09:09:19;10.13;;;8.87;;
23400;SDS011;11873;49.300;8.920;2023-03-01T09:14:19;7.73;;;6.77;;
23400;SDS011;11873;49.300;8.920;2023-03-01T09:19:19;3.10;;;2.80;;
23400;SDS011;11873;49.300;8.920;2023-03-01T09:24:20;6.43;;;5.17;;
23400;SDS011;11873;49.300;8.920;2023-03-01T09:29:21;11.07;;;9.70;;
23400;SDS011;11873;49.300;8.920;2023-03-01T09:34:21;10.80;;;8.83;;
23400;SDS011;11873;49.300;8.920;2023-03-01T09:39:22;14.57;;;9.63;;
23400;SDS011;11873;49.300;8.920;2023-03-01T09:49:41;11.77;;;7.70;;
23400;SDS011;11873;49.300;8.920;2023-03-01T09:54:43;15.20;;;11.63;;
23400;SDS011;11873;49.300;8.920;2023-03-01T10:05:05;13.97;;;12.30;;
23400;SDS011;11873;49.300;8.920;2023-03-01T10:10:23;14.70;;;11.73;;
23400;SDS011;11873;49.300;8.920;2023-03-01T10:15:30;11.07;;;9.57;;
23400;SDS011;11873;49.300;8.920;2023-03-01T10:20:42;11.40;;;9.27;;
23400;SDS011;11873;49.300;8.920;2023-03-01T10:25:47;14.30;;;10.77;;
23400;SDS011;11873;49.300;8.920;2023-03-01T10:30:51;10.63;;;9.40;;
23400;SDS011;11873;49.300;8.920;2023-03-01T10:35:51;11.17;;;8.97;;
23400;SDS011;11873;49.300;8.920;2023-03-01T10:40:56;9.93;;;8.87;;
23400;SDS011;11873;49.300;8.920;2023-03-01T10:45:56;11.77;;;10.27;;
23400;SDS011;11873;49.300;8.920;2023-03-01T11:06:21;11.17;;;9.90;;
23400;SDS011;11873;49.300;8.920;2023-03-01T11:11:31;12.63;;;10.67;;
23400;SDS011;11873;49.300;8.920;2023-03-01T11:16:33;9.23;;;6.57;;
23400;SDS011;11873;49.300;8.920;2023-03-01T11:21:34;13.43;;;9.93;;
23400;SDS011;11873;49.300;8.920;2023-03-01T11:26:36;2.33;;;2.00;;
23400;SDS011;11873;49.300;8.920;2023-03-01T11:31:38;10.20;;;9.20;;
23400;SDS011;11873;49.300;8.920;2023-03-01T11:41:46;4.53;;;3.23;;
23400;SDS011;11873;49.300;8.920;2023-03-01T11:46:58;3.60;;;3.10;;
23400;SDS011;11873;49.300;8.920;2023-03-01T11:57:30;6.10;;;5.53;;
23400;SDS011;11873;49.300;8.920;2023-03-01T12:02:55;12.57;;;8.80;;
23400;SDS011;11873;49.300;8.920;2023-03-01T12:08:12;6.07;;;3.77;;
23400;SDS011;11873;49.300;8.920;2023-03-01T12:13:19;7.10;;;5.63;;
23400;SDS011;11873;49.300;8.920;2023-03-01T12:24:15;12.03;;;8.73;;
23400;SDS011;11873;49.300;8.920;2023-03-01T12:34:20;1.63;;;1.50;;
23400;SDS011;11873;49.300;8.920;2023-03-01T12:49:41;3.10;;;2.87;;
23400;SDS011;11873;49.300;8.920;2023-03-01T12:54:44;12.80;;;9.83;;
23400;SDS011;11873;49.300;8.920;2023-03-01T12:59:51;10.83;;;9.73;;
23400;SDS011;11873;49.300;8.920;2023-03-01T13:20:27;6.73;;;6.07;;
23400;SDS011;11873;49.300;8.920;2023-03-01T13:25:30;14.03;;;11.87;;
23400;SDS011;11873;49.300;8.920;2023-03-01T13:35:40;11.10;;;7.80;;
23400;SDS011;11873;49.300;8.920;2023-03-01T13:45:44;20.17;;;10.73;;
23400;SDS011;11873;49.300;8.920;2023-03-01T13:50:46;14.03;;;12.07;;
23400;SDS011;11873;49.300;8.920;2023-03-01T13:55:48;11.90;;;9.97;;
23400;SDS011;11873;49.300;8.920;2023-03-01T14:01:05;9.93;;;8.20;;
23400;SDS011;11873;49.300;8.920;2023-03-01T14:06:08;11.97;;;9.30;;
23400;SDS011;11873;49.300;8.920;2023-03-01T14:16:31;10.87;;;9.30;;
23400;SDS011;11873;49.300;8.920;2023-03-01T14:21:33;15.37;;;11.63;;
23400;SDS011;11873;49.300;8.920;2023-03-01T14:26:33;9.37;;;7.80;;
23400;SDS011;11873;49.300;8.920;2023-03-01T14:31:37;11.80;;;9.53;;
23400;SDS011;11873;49.300;8.920;2023-03-01T14:36:37;12.43;;;8.57;;
23400;SDS011;11873;49.300;8.920;2023-03-01T14:41:38;11.67;;;9.03;;
23400;SDS011;11873;49.300;8.920;2023-03-01T14:46:38;9.57;;;7.93;;
23400;SDS011;11873;49.300;8.920;2023-03-01T14:51:40;8.10;;;6.47;;
23400;SDS011;11873;49.300;8.920;2023-03-01T14:56:45;10.63;;;7.87;;
23400;SDS011;11873;49.300;8.920;2023-03-01T15:01:45;10.17;;;8.03;;
23400;SDS011;11873;49.300;8.920;2023-03-01T15:06:46;10.67;;;8.60;;
23400;SDS011;11873;49.300;8.920;2023-03-01T15:11:46;12.90;;;9.10;;
23400;SDS011;11873;49.300;8.920;2023-03-01T15:16:46;13.80;;;9.60;;
23400;SDS011;11873;49.300;8.920;2023-03-01T15:21:48;9.07;;;8.13;;
23400;SDS011;11873;49.300;8.920;2023-03-01T15:26:52;11.07;;;8.70;;
23400;SDS011;11873;49.300;8.920;2023-03-01T15:31:54;7.73;;;7.00;;
23400;SDS011;11873;49.300;8.920;2023-03-01T15:36:55;10.57;;;6.67;;
23400;SDS011;11873;49.300;8.920;2023-03-01T15:41:56;8.13;;;5.93;;
23400;SDS011;11873;49.300;8.920;2023-03-01T15:46:56;5.28;;;3.85;;
23400;SDS011;11873;49.300;8.920;2023-03-01T15:51:56;8.43;;;6.77;;
23400;SDS011;11873;49.300;8.920;2023-03-01T15:56:57;12.93;;;7.27;;
23400;SDS011;11873;49.300;8.920;2023-03-01T16:01:57;14.13;;;10.43;;
23400;SDS011;11873;49.300;8.920;2023-03-01T16:06:57;2.43;;;1.77;;
23400;SDS011;11873;49.300;8.920;2023-03-01T16:11:57;11.90;;;8.47;;
23400;SDS011;11873;49.300;8.920;2023-03-01T16:16:58;13.73;;;10.43;;
23400;SDS011;11873;49.300;8.920;2023-03-01T16:21:58;11.40;;;8.73;;
23400;SDS011;11873;49.300;8.920;2023-03-01T16:26:58;13.40;;;9.93;;
23400;SDS011;11873;49.300;8.920;2023-03-01T16:32:01;13.27;;;10.07;;
23400;SDS011;11873;49.300;8.920;2023-03-01T16:37:01;13.30;;;10.23;;
23400;SDS011;11873;49.300;8.920;2023-03-01T16:42:02;12.60;;;9.47;;
23400;SDS011;11873;49.300;8.920;2023-03-01T16:47:02;12.47;;;10.80;;
23400;SDS011;11873;49.300;8.920;2023-03-01T16:52:02;13.90;;;10.50;;
23400;SDS011;11873;49.300;8.920;2023-03-01T16:57:02;14.30;;;10.23;;
23400;SDS011;11873;49.300;8.920;2023-03-01T17:02:03;13.27;;;10.30;;
23400;SDS011;11873;49.300;8.920;2023-03-01T17:07:03;10.80;;;9.60;;
23400;SDS011;11873;49.300;8.920;2023-03-01T17:12:04;13.47;;;10.40;;
23400;SDS011;11873;49.300;8.920;2023-03-01T17:17:04;11.83;;;9.67;;
23400;SDS011;11873;49.300;8.920;2023-03-01T17:22:05;14.47;;;10.00;;
23400;SDS011;11873;49.300;8.920;2023-03-01T17:27:05;13.40;;;9.33;;
23400;SDS011;11873;49.300;8.920;2023-03-01T17:32:05;14.07;;;10.67;;
23400;SDS011;11873;49.300;8.920;2023-03-01T17:37:06;16.83;;;9.70;;
23400;SDS011;11873;49.300;8.920;2023-03-01T17:42:06;12.53;;;10.10;;
23400;SDS011;11873;49.300;8.920;2023-03-01T17:47:06;12.40;;;10.00;;
23400;SDS011;11873;49.300;8.920;2023-03-01T17:52:06;15.70;;;9.37;;
23400;SDS011;11873;49.300;8.920;2023-03-01T17:57:06;15.03;;;10.07;;
23400;SDS011;11873;49.300;8.920;2023-03-01T18:02:08;15.30;;;9.87;;
23400;SDS011;11873;49.300;8.920;2023-03-01T18:07:09;13.47;;;10.17;;
23400;SDS011;11873;49.300;8.920;2023-03-01T18:12:09;12.83;;;9.93;;
23400;SDS011;11873;49.300;8.920;2023-03-01T18:17:10;13.77;;;10.10;;
23400;SDS011;11873;49.300;8.920;2023-03-01T18:22:10;12.77;;;9.93;;
23400;SDS011;11873;49.300;8.920;2023-03-01T18:27:10;15.83;;;10.10;;
23400;SDS011;11873;49.300;8.920;2023-03-01T18:32:10;12.93;;;10.47;;
23400;SDS011;11873;49.300;8.920;2023-03-01T18:37:10;13.70;;;10.63;;
23400;SDS011;11873;49.300;8.920;2023-03-01T18:42:11;13.53;;;10.57;;
23400;SDS011;11873;49.300;8.920;2023-03-01T18:47:11;15.33;;;11.47;;
23400;SDS011;11873;49.300;8.920;2023-03-01T18:52:11;14.30;;;10.97;;
23400;SDS011;11873;49.300;8.920;2023-03-01T18:57:11;15.93;;;10.77;;
23400;SDS011;11873;49.300;8.920;2023-03-01T19:02:11;12.60;;;10.27;;
23400;SDS011;11873;49.300;8.920;2023-03-01T19:07:12;16.40;;;12.10;;
23400;SDS011;11873;49.300;8.920;2023-03-01T19:12:12;15.67;;;11.93;;
23400;SDS011;11873;49.300;8.920;2023-03-01T19:17:12;12.23;;;10.43;;
23400;SDS011;11873;49.300;8.920;2023-03-01T19:22:12;17.50;;;11.27;;
23400;SDS011;11873;49.300;8.920;2023-03-01T19:27:12;11.40;;;9.53;;
23400;SDS011;11873;49.300;8.920;2023-03-01T19:32:12;13.33;;;9.07;;
23400;SDS011;11873;49.300;8.920;2023-03-01T19:37:13;10.37;;;8.33;;
23400;SDS011;11873;49.300;8.920;2023-03-01T19:42:13;10.47;;;8.03;;
23400;SDS011;11873;49.300;8.920;2023-03-01T19:47:13;13.30;;;10.27;;
23400;SDS011;11873;49.300;8.920;2023-03-01T19:52:13;13.10;;;10.03;;
23400;SDS011;11873;49.300;8.920;2023-03-01T19:57:13;14.33;;;10.43;;
23400;SDS011;11873;49.300;8.920;2023-03-01T20:02:14;18.47;;;13.47;;
23400;SDS011;11873;49.300;8.920;2023-03-01T20:07:14;15.03;;;11.20;;
23400;SDS011;11873;49.300;8.920;2023-03-01T20:12:15;12.83;;;10.70;;
23400;SDS011;11873;49.300;8.920;2023-03-01T20:17:16;15.67;;;11.37;;
23400;SDS011;11873;49.300;8.920;2023-03-01T20:22:16;12.87;;;9.33;;
23400;SDS011;11873;49.300;8.920;2023-03-01T20:27:16;14.73;;;10.67;;
23400;SDS011;11873;49.300;8.920;2023-03-01T20:32:16;16.13;;;12.47;;
23400;SDS011;11873;49.300;8.920;2023-03-01T20:37:16;15.00;;;12.50;;
23400;SDS011;11873;49.300;8.920;2023-03-01T20:42:16;13.40;;;11.20;;
23400;SDS011;11873;49.300;8.920;2023-03-01T20:47:17;15.33;;;12.37;;
23400;SDS011;11873;49.300;8.920;2023-03-01T20:52:17;13.03;;;9.57;;
23400;SDS011;11873;49.300;8.920;2023-03-01T20:57:17;12.67;;;10.77;;
23400;SDS011;11873;49.300;8.920;2023-03-01T21:02:17;12.77;;;9.50;;
23400;SDS011;11873;49.300;8.920;2023-03-01T21:07:18;15.67;;;11.20;;
23400;SDS011;11873;49.300;8.920;2023-03-01T21:12:18;14.13;;;10.80;;
23400;SDS011;11873;49.300;8.920;2023-03-01T21:17:18;15.33;;;11.97;;
23400;SDS011;11873;49.300;8.920;2023-03-01T21:22:18;15.27;;;11.17;;
23400;SDS011;11873;49.300;8.920;2023-03-01T21:27:18;15.77;;;12.63;;
23400;SDS011;11873;49.300;8.920;2023-03-01T21:32:18;13.13;;;9.67;;
23400;SDS011;11873;49.300;8.920;2023-03-01T21:37:19;16.93;;;13.00;;
23400;SDS011;11873;49.300;8.920;2023-03-01T21:42:19;17.97;;;12.57;;
23400;SDS011;11873;49.300;8.920;2023-03-01T21:47:19;15.97;;;13.07;;
23400;SDS011;11873;49.300;8.920;2023-03-01T21:52:19;17.03;;;12.13;;
23400;SDS011;11873;49.300;8.920;2023-03-01T21:57:19;15.87;;;12.47;;
23400;SDS011;11873;49.300;8.920;2023-03-01T22:02:19;18.73;;;12.87;;
23400;SDS011;11873;49.300;8.920;2023-03-01T22:07:20;13.70;;;11.73;;
23400;SDS011;11873;49.300;8.920;2023-03-01T22:12:20;14.17;;;11.17;;
23400;SDS011;11873;49.300;8.920;2023-03-01T22:17:20;15.70;;;11.90;;
23400;SDS011;11873;49.300;8.920;2023-03-01T22:22:20;15.57;;;11.60;;
23400;SDS011;11873;49.300;8.920;2023-03-01T22:27:20;19.07;;;11.80;;
23400;SDS011;11873;49.300;8.920;2023-03-01T22:32:21;14.63;;;10.60;;
23400;SDS011;11873;49.300;8.920;2023-03-01T22:37:21;17.23;;;12.47;;
23400;SDS011;11873;49.300;8.920;2023-03-01T22:42:21;17.87;;;13.00;;
23400;SDS011;11873;49.300;8.920;2023-03-01T22:47:21;13.90;;;10.63;;
23400;SDS011;11873;49.300;8.920;2023-03-01T22:52:21;18.23;;;12.67;;
23400;SDS011;11873;49.300;8.920;2023-03-01T22:57:22;14.30;;;10.80;;
23400;SDS011;11873;49.300;8.920;2023-03-01T23:02:22;17.63;;;12.13;;
23400;SDS011;11873;49.300;8.920;2023-03-01T23:07:22;17.17;;;14.10;;
23400;SDS011;11873;49.300;8.920;2023-03-01T23:12:22;19.10;;;13.83;;
23400;SDS011;11873;49.300;8.920;2023-03-01T23:17:22;19.47;;;14.90;;
23400;SDS011;11873;49.300;8.920;2023-03-01T23:22:23;19.35;;;14.18;;
23400;SDS011;11873;49.300;8.920;2023-03-01T23:27:23;17.93;;;12.93;;
23400;SDS011;11873;49.300;8.920;2023-03-01T23:32:23;18.80;;;14.43;;
23400;SDS011;11873;49.300;8.920;2023-03-01T23:37:28;19.33;;;14.67;;
23400;SDS011;11873;49.300;8.920;2023-03-01T23:42:28;20.20;;;14.20;;
23400;SDS011;11873;49.300;8.920;2023-03-01T23:47:28;17.80;;;13.63;;
23400;SDS011;11873;49.300;8.920;2023-03-01T23:52:28;18.43;;;13.87;;
23400;SDS011;11873;49.300;8.920;2023-03-01T23:57:29;16.80;;;13.00;;
